This is the latest recevied weather packets stored in our database for station/object OK0EK-11. If no packets are shown the sender has not sent any weather packets the latest 10 day(s).
| Time | Temp. | Humidity | Pressure | Rain* | Wind** | Luminosity | Snow |
|---|---|---|---|---|---|---|---|
| 1787816544 | 16.11° C | 73% | 1021.6 hPa | - | - | - | - |
| 1787815944 | 15.56° C | 72% | 1021.7 hPa | - | - | - | - |
| 1787815344 | 15° C | 77% | 1021.5 hPa | - | - | - | - |
| 1787814745 | 15.56° C | 75% | 1021.5 hPa | - | - | - | - |
| 1787814145 | 17.22° C | 67% | 1021.3 hPa | - | - | - | - |
| 1787813545 | 17.78° C | 65% | 1021.3 hPa | - | - | - | - |
| 1787812945 | 17.22° C | 66% | 1021.2 hPa | - | - | - | - |
| 1787812345 | 16.67° C | 67% | 1021.2 hPa | - | - | - | - |
| 1787811745 | 16.67° C | 68% | 1021.2 hPa | - | - | - | - |
| 1787811146 | 16.11° C | 69% | 1021.1 hPa | - | - | - | - |
| 1787810545 | 16.11° C | 69% | 1021 hPa | - | - | - | - |
| 1787809945 | 16.11° C | 70% | 1020.9 hPa | - | - | - | - |
| 1787809345 | 14.44° C | 74% | 1020.8 hPa | - | - | - | - |
| 1787808746 | 15° C | 74% | 1020.9 hPa | - | - | - | - |
| 1787808147 | 15° C | 73% | 1020.9 hPa | - | - | - | - |
| 1787807549 | 15.56° C | 71% | 1020.9 hPa | - | - | - | - |
| 1787806949 | 15° C | 73% | 1021.1 hPa | - | - | - | - |
| 1787806349 | 15° C | 74% | 1021.1 hPa | - | - | - | - |
| 1787805749 | 14.44° C | 75% | 1021.1 hPa | - | - | - | - |
| 1787805150 | 14.44° C | 76% | 1021 hPa | - | - | - | - |
| 1787804551 | 13.89° C | 77% | 1020.9 hPa | - | - | - | - |
| 1787803951 | 13.89° C | 78% | 1020.8 hPa | - | - | - | - |
| 1787803351 | 13.89° C | 76% | 1020.8 hPa | - | - | - | - |
| 1787802752 | 15° C | 73% | 1020.8 hPa | - | - | - | - |
| 1787802153 | 14.44° C | 74% | 1020.7 hPa | - | - | - | - |
* Rain since midnight (hover to see other rain measurements)
** Current wind speed in m/s (hover to see current wind gust speed)